createdAt,value
2022-12-11T00:01:30.708Z,24.05
2022-12-11T00:03:57.266Z,24.80
2022-12-11T00:06:23.876Z,21.98
2022-12-11T00:08:55.403Z,22.70
2022-12-11T00:11:23.462Z,26.17
2022-12-11T00:13:50.174Z,21.52
2022-12-11T00:16:16.815Z,33.95
2022-12-11T00:18:43.914Z,25.42
2022-12-11T00:21:13.983Z,24.10
2022-12-11T00:23:41.037Z,24.48
2022-12-11T00:26:12.219Z,23.73
2022-12-11T00:28:39.126Z,59.47
2022-12-11T00:31:07.704Z,32.88
2022-12-11T00:33:34.588Z,21.45
2022-12-11T00:36:01.218Z,24.20
2022-12-11T00:38:27.813Z,24.58
2022-12-11T00:40:59.452Z,22.77
2022-12-11T00:43:26.030Z,21.67
2022-12-11T00:45:52.814Z,22.55
2022-12-11T00:48:19.426Z,23.58
2022-12-11T00:50:46.481Z,22.77
2022-12-11T00:53:13.104Z,22.92
2022-12-11T00:55:41.726Z,22.80
2022-12-11T00:58:09.311Z,28.42
2022-12-11T01:00:36.259Z,21.88
2022-12-11T01:03:03.251Z,24.17
2022-12-11T01:05:29.885Z,26.83
2022-12-11T01:07:56.789Z,23.95
2022-12-11T01:10:26.414Z,27.25
2022-12-11T01:13:15.494Z,31.40
2022-12-11T01:15:44.855Z,26.70
2022-12-11T01:18:13.675Z,30.95
2022-12-11T01:20:42.505Z,26.63
2022-12-11T01:23:13.104Z,30.55
2022-12-11T01:25:39.875Z,27.55
2022-12-11T01:28:07.374Z,26.90
2022-12-11T01:30:34.300Z,29.00
2022-12-11T01:33:01.119Z,25.45
2022-12-11T01:35:28.644Z,30.58
2022-12-11T01:37:55.747Z,28.58
2022-12-11T01:40:22.646Z,28.77
2022-12-11T01:42:49.387Z,26.48
2022-12-11T01:45:23.833Z,28.67
2022-12-11T01:48:00.853Z,27.85
2022-12-11T01:50:29.184Z,28.00
2022-12-11T01:52:55.782Z,34.13
2022-12-11T01:55:22.800Z,33.75
2022-12-11T01:57:52.779Z,31.40
2022-12-11T02:00:20.829Z,31.95
2022-12-11T02:02:47.727Z,27.83
2022-12-11T02:05:14.436Z,23.83
2022-12-11T02:07:46.446Z,24.42
2022-12-11T02:10:13.567Z,28.65
2022-12-11T02:13:07.654Z,25.92
2022-12-11T02:15:53.536Z,26.17
2022-12-11T02:18:27.923Z,25.13
2022-12-11T02:21:21.408Z,26.63
2022-12-11T02:24:06.815Z,26.60
2022-12-11T02:26:55.633Z,25.13
2022-12-11T02:29:57.286Z,24.10
2022-12-11T02:32:30.101Z,24.85
2022-12-11T02:35:04.742Z,28.05
2022-12-11T02:37:33.440Z,30.17
2022-12-11T02:40:00.356Z,32.65
2022-12-11T02:42:32.469Z,31.20
2022-12-11T02:45:01.015Z,34.22
2022-12-11T02:47:30.023Z,29.48
2022-12-11T02:49:59.048Z,28.20
2022-12-11T02:52:29.675Z,33.15
2022-12-11T02:54:58.958Z,30.73
2022-12-11T02:57:33.407Z,27.88
2022-12-11T03:00:00.005Z,30.15
2022-12-11T03:02:26.986Z,31.42
2022-12-11T03:04:54.221Z,31.10
2022-12-11T03:07:27.566Z,28.48
2022-12-11T03:09:54.687Z,30.63
2022-12-11T03:12:29.836Z,30.00
2022-12-11T03:14:59.585Z,30.45
2022-12-11T03:17:38.684Z,30.77
2022-12-11T03:20:14.900Z,31.92
2022-12-11T03:22:54.742Z,27.83
2022-12-11T03:25:26.044Z,29.08
2022-12-11T03:28:40.697Z,29.75
2022-12-11T03:31:11.181Z,36.13
2022-12-11T03:33:42.029Z,34.53
2022-12-11T03:36:17.744Z,31.25
2022-12-11T03:38:49.349Z,34.38
2022-12-11T03:41:20.072Z,37.60
2022-12-11T03:43:48.477Z,33.22
2022-12-11T03:46:18.333Z,37.00
2022-12-11T03:48:48.361Z,30.70
2022-12-11T03:51:17.263Z,32.47
2022-12-11T03:53:44.810Z,33.05
2022-12-11T03:56:13.827Z,30.40
2022-12-11T03:58:40.392Z,32.72
2022-12-11T04:01:11.297Z,32.85
2022-12-11T04:03:38.914Z,32.50
2022-12-11T04:06:05.674Z,29.48
2022-12-11T04:08:32.252Z,41.00
2022-12-11T04:11:17.140Z,28.23
2022-12-11T04:13:43.807Z,29.55
2022-12-11T04:16:10.439Z,34.13
2022-12-11T04:18:55.906Z,29.35
2022-12-11T04:21:41.049Z,29.95
2022-12-11T04:24:16.899Z,27.25
2022-12-11T04:26:45.735Z,31.73
2022-12-11T04:29:13.000Z,33.00
2022-12-11T04:31:39.587Z,30.85
2022-12-11T04:34:06.470Z,37.22
2022-12-11T04:36:33.075Z,28.27
2022-12-11T04:38:59.625Z,31.85
2022-12-11T04:41:26.317Z,29.52
2022-12-11T04:43:52.874Z,29.23
2022-12-11T04:46:21.729Z,31.55
2022-12-11T04:48:55.470Z,31.77
2022-12-11T04:51:23.834Z,33.60
2022-12-11T04:53:50.494Z,35.38
2022-12-11T04:56:17.218Z,32.78
2022-12-11T04:58:45.031Z,32.60
2022-12-11T05:01:14.243Z,29.55
2022-12-11T05:03:41.068Z,31.23
2022-12-11T05:06:09.105Z,27.73
2022-12-11T05:08:37.935Z,29.50
2022-12-11T05:11:07.923Z,30.73
2022-12-11T05:13:34.707Z,28.30
2022-12-11T05:16:04.536Z,30.95
2022-12-11T05:18:31.197Z,25.80
2022-12-11T05:21:02.756Z,26.73
2022-12-11T05:23:29.711Z,24.17
2022-12-11T05:25:59.114Z,25.75
2022-12-11T05:28:29.865Z,28.15
2022-12-11T05:31:00.886Z,28.85
2022-12-11T05:33:28.434Z,28.52
2022-12-11T05:35:55.208Z,39.25
2022-12-11T05:38:22.718Z,26.98
2022-12-11T05:40:56.893Z,30.23
2022-12-11T05:43:23.633Z,31.15
2022-12-11T05:45:50.207Z,26.20
2022-12-11T05:48:16.765Z,26.90
2022-12-11T05:50:43.393Z,28.98
2022-12-11T05:53:09.991Z,25.33
2022-12-11T05:55:36.593Z,27.65
2022-12-11T05:58:03.170Z,22.42
2022-12-11T06:00:35.697Z,20.63
2022-12-11T06:03:02.877Z,14.77
2022-12-11T06:05:29.498Z,20.88
2022-12-11T06:07:56.138Z,20.88
2022-12-11T06:10:22.769Z,22.60
2022-12-11T06:12:49.397Z,22.20
2022-12-11T06:15:15.953Z,22.90
2022-12-11T06:17:42.474Z,22.80
2022-12-11T06:20:09.238Z,28.73
2022-12-11T06:22:35.885Z,26.77
2022-12-11T06:25:02.441Z,23.88
2022-12-11T06:27:28.955Z,25.05
2022-12-11T06:29:56.138Z,24.00
2022-12-11T06:32:22.948Z,25.00
2022-12-11T06:34:49.548Z,26.02
2022-12-11T06:37:16.204Z,24.10
2022-12-11T06:39:42.760Z,23.73
2022-12-11T06:42:09.270Z,24.95
2022-12-11T06:44:35.879Z,23.33
2022-12-11T06:47:03.743Z,24.60
2022-12-11T06:49:30.584Z,26.08
2022-12-11T06:51:57.175Z,25.85
2022-12-11T06:54:27.977Z,25.15
2022-12-11T06:56:54.554Z,26.67
2022-12-11T06:59:21.204Z,29.67
2022-12-11T07:01:47.967Z,31.60
2022-12-11T07:04:14.637Z,25.60
2022-12-11T07:06:41.388Z,31.05
2022-12-11T07:09:08.240Z,31.80
2022-12-11T07:11:34.786Z,27.92
2022-12-11T07:14:01.439Z,28.10
2022-12-11T07:16:28.174Z,25.88
2022-12-11T07:18:54.776Z,26.85
2022-12-11T07:21:21.695Z,27.65
2022-12-11T07:23:49.278Z,26.63
2022-12-11T07:26:18.880Z,28.00
2022-12-11T07:28:46.019Z,29.02
2022-12-11T07:31:15.776Z,28.80
2022-12-11T07:33:42.721Z,30.42
2022-12-11T07:36:11.586Z,31.55
2022-12-11T07:38:38.924Z,31.60
2022-12-11T07:41:08.181Z,36.20
2022-12-11T07:43:35.699Z,34.08
2022-12-11T07:46:07.490Z,31.77
2022-12-11T07:51:09.008Z,34.55
2022-12-11T07:53:35.673Z,34.27
2022-12-11T07:56:02.297Z,30.35
2022-12-11T07:58:28.865Z,35.58
2022-12-11T08:00:55.516Z,36.70
2022-12-11T08:03:22.126Z,34.17
2022-12-11T08:05:50.271Z,34.08
2022-12-11T08:08:17.161Z,35.55
2022-12-11T08:10:43.776Z,34.97
2022-12-11T08:13:10.970Z,33.35
2022-12-11T08:15:38.365Z,33.58
2022-12-11T08:18:05.775Z,34.75
2022-12-11T08:20:32.378Z,31.10
2022-12-11T08:22:59.268Z,34.88
2022-12-11T08:25:25.967Z,34.25
2022-12-11T08:27:52.531Z,35.47
2022-12-11T08:30:19.118Z,35.88
2022-12-11T08:32:45.759Z,39.50
2022-12-11T08:35:12.519Z,36.83
2022-12-11T08:37:40.204Z,33.10
2022-12-11T08:40:07.630Z,32.65
2022-12-11T08:42:34.270Z,33.63
2022-12-11T08:45:00.801Z,31.73
2022-12-11T08:47:27.924Z,27.63
2022-12-11T08:49:54.459Z,29.13
2022-12-11T08:52:21.008Z,26.23
2022-12-11T08:54:48.348Z,28.65
2022-12-11T08:57:15.210Z,28.80
2022-12-11T08:59:41.804Z,26.73
2022-12-11T09:02:11.569Z,25.92
2022-12-11T09:04:38.189Z,24.08
2022-12-11T09:07:04.778Z,23.15
2022-12-11T09:09:31.349Z,23.38
2022-12-11T09:11:57.929Z,25.83
2022-12-11T09:14:24.437Z,22.25
2022-12-11T09:16:51.127Z,19.90
2022-12-11T09:19:17.894Z,22.02
2022-12-11T09:21:45.175Z,20.23
2022-12-11T09:24:13.576Z,21.33
2022-12-11T09:26:40.511Z,21.23
2022-12-11T09:29:07.827Z,20.85
2022-12-11T09:31:36.593Z,22.92
2022-12-11T09:34:09.241Z,21.58
2022-12-11T09:36:37.976Z,24.42
2022-12-11T09:39:06.861Z,20.75
2022-12-11T09:41:38.152Z,22.25
2022-12-11T09:44:19.650Z,24.38
2022-12-11T09:46:47.347Z,22.58
2022-12-11T09:49:42.926Z,22.80
2022-12-11T09:52:18.328Z,24.05
2022-12-11T09:54:57.785Z,26.25
2022-12-11T09:57:43.314Z,25.83
2022-12-11T10:00:11.473Z,25.52
2022-12-11T10:03:22.716Z,25.13
2022-12-11T10:06:09.689Z,27.20
2022-12-11T10:08:45.002Z,28.80
2022-12-11T10:11:32.871Z,28.90
2022-12-11T10:14:25.416Z,29.50
2022-12-11T10:17:03.581Z,33.38
2022-12-11T10:19:32.249Z,27.42
2022-12-11T10:22:00.857Z,29.10
2022-12-11T10:25:10.228Z,27.40
2022-12-11T10:27:35.527Z,26.47
2022-12-11T10:30:20.717Z,28.65
2022-12-11T10:33:08.705Z,28.63
2022-12-11T10:35:41.981Z,30.98
2022-12-11T10:38:23.863Z,32.58
2022-12-11T10:40:55.243Z,35.33
2022-12-11T10:43:42.260Z,31.48
2022-12-11T10:46:37.269Z,33.75
2022-12-11T10:49:03.856Z,29.45
2022-12-11T10:51:30.334Z,25.70
2022-12-11T10:54:16.702Z,27.65
2022-12-11T10:56:47.174Z,27.65
2022-12-11T10:59:24.530Z,25.63
2022-12-11T11:01:51.457Z,27.17
2022-12-11T11:04:30.056Z,26.23
2022-12-11T11:07:24.873Z,24.00
2022-12-11T11:10:03.767Z,25.60
2022-12-11T11:12:30.409Z,26.13
2022-12-11T11:15:11.914Z,25.77
2022-12-11T11:17:55.128Z,27.25
2022-12-11T11:20:25.912Z,27.45
2022-12-11T11:22:55.981Z,27.15
2022-12-11T11:25:28.670Z,26.15
2022-12-11T11:27:55.182Z,26.20
2022-12-11T11:30:28.723Z,24.20
2022-12-11T11:32:58.189Z,23.13
2022-12-11T11:35:27.876Z,20.00
2022-12-11T11:38:16.010Z,22.42
2022-12-11T11:40:51.208Z,22.17
2022-12-11T11:43:21.079Z,18.58
2022-12-11T11:46:05.605Z,25.60
2022-12-11T11:49:00.929Z,26.10
2022-12-11T11:51:31.515Z,25.10
2022-12-11T11:54:01.915Z,24.17
2022-12-11T11:56:37.545Z,25.55
2022-12-11T11:59:17.435Z,23.17
2022-12-11T12:01:44.102Z,26.40
2022-12-11T12:04:11.690Z,23.45
2022-12-11T12:06:54.443Z,21.50
2022-12-11T12:09:55.411Z,22.27
2022-12-11T12:12:49.535Z,21.95
2022-12-11T12:15:34.305Z,21.48
2022-12-11T12:18:15.689Z,22.10
2022-12-11T12:20:50.560Z,23.10
2022-12-11T12:23:23.207Z,22.10
2022-12-11T12:26:17.221Z,21.08
2022-12-11T12:28:49.016Z,25.20
2022-12-11T12:31:24.849Z,20.90
2022-12-11T12:34:28.904Z,23.23
2022-12-11T12:37:07.595Z,21.60
2022-12-11T12:39:57.346Z,21.42
2022-12-11T12:42:32.849Z,22.73
2022-12-11T12:45:08.945Z,25.50
2022-12-11T12:47:36.779Z,24.55
2022-12-11T12:50:04.656Z,22.77
2022-12-11T12:52:35.349Z,25.48
2022-12-11T12:55:18.972Z,20.92
2022-12-11T12:57:52.868Z,25.58
2022-12-11T13:00:39.544Z,25.58
2022-12-11T13:03:20.434Z,22.70
2022-12-11T13:06:03.353Z,21.77
2022-12-11T13:08:50.245Z,27.05
2022-12-11T13:11:20.758Z,22.42
2022-12-11T13:14:22.414Z,24.25
2022-12-11T13:16:52.084Z,25.88
2022-12-11T13:19:27.550Z,27.73
2022-12-11T13:22:06.343Z,30.55
2022-12-11T13:24:34.124Z,24.30
2022-12-11T13:27:12.245Z,23.13
2022-12-11T13:29:41.275Z,24.35
2022-12-11T13:32:07.797Z,23.40
2022-12-11T13:34:37.774Z,27.85
2022-12-11T13:37:05.892Z,23.85
2022-12-11T13:39:35.644Z,22.67
2022-12-11T13:42:05.670Z,21.92
2022-12-11T13:44:41.720Z,25.20
2022-12-11T13:47:14.437Z,23.08
2022-12-11T13:49:44.214Z,23.13
2022-12-11T13:52:23.365Z,23.50
2022-12-11T13:54:53.397Z,24.13
2022-12-11T13:57:31.093Z,25.33
2022-12-11T13:59:59.616Z,27.13
2022-12-11T14:02:34.190Z,28.75
2022-12-11T14:05:04.277Z,29.55
2022-12-11T14:07:34.982Z,26.10
2022-12-11T14:10:15.904Z,23.83
2022-12-11T14:13:04.372Z,26.15
2022-12-11T14:15:33.869Z,23.15
2022-12-11T14:18:01.049Z,27.45
2022-12-11T14:20:32.857Z,23.27
2022-12-11T14:23:05.586Z,30.67
2022-12-11T14:25:32.181Z,25.45
2022-12-11T14:27:58.831Z,26.40
2022-12-11T14:30:31.677Z,24.65
2022-12-11T14:33:02.724Z,21.88
2022-12-11T14:35:41.812Z,24.02
2022-12-11T14:38:21.872Z,25.52
2022-12-11T14:40:53.557Z,24.45
2022-12-11T14:43:38.379Z,26.13
2022-12-11T14:46:13.925Z,28.10
2022-12-11T14:48:46.584Z,25.65
2022-12-11T14:51:17.380Z,27.42
2022-12-11T14:53:46.646Z,25.27
2022-12-11T14:56:23.408Z,29.63
2022-12-11T14:59:09.322Z,27.70
2022-12-11T15:01:37.544Z,27.35
2022-12-11T15:04:16.194Z,25.80
2022-12-11T15:06:47.982Z,24.65
2022-12-11T15:11:50.995Z,24.20
2022-12-11T15:14:21.433Z,25.35
2022-12-11T15:16:49.295Z,25.40
2022-12-11T15:19:24.104Z,27.95
2022-12-11T15:21:51.616Z,27.80
2022-12-11T15:24:47.182Z,31.10
2022-12-11T15:27:27.903Z,28.23
2022-12-11T15:29:54.538Z,29.30
2022-12-11T15:32:21.854Z,26.88
2022-12-11T15:34:57.037Z,26.30
2022-12-11T15:37:29.371Z,24.27
2022-12-11T15:39:57.871Z,23.88
2022-12-11T15:42:26.875Z,25.02
2022-12-11T15:44:55.532Z,26.23
2022-12-11T15:47:24.813Z,23.92
2022-12-11T15:49:57.152Z,25.23
2022-12-11T15:52:24.017Z,30.38
2022-12-11T15:54:50.688Z,24.30
2022-12-11T15:57:21.271Z,24.63
2022-12-11T15:59:49.727Z,29.73
2022-12-11T16:02:17.446Z,25.02
2022-12-11T16:04:44.065Z,27.27
2022-12-11T16:07:22.650Z,28.30
2022-12-11T16:09:49.643Z,27.92
2022-12-11T16:12:16.613Z,31.25
2022-12-11T16:14:45.130Z,31.52
2022-12-11T16:17:13.892Z,29.10
2022-12-11T16:19:41.975Z,26.92
2022-12-11T16:22:10.166Z,27.17
2022-12-11T16:24:37.725Z,28.80
2022-12-11T16:27:05.489Z,26.90
2022-12-11T16:29:40.554Z,26.33
2022-12-11T16:32:08.514Z,25.17
2022-12-11T16:34:36.475Z,25.05
2022-12-11T16:37:04.066Z,25.27
2022-12-11T16:39:30.653Z,29.17
2022-12-11T16:41:57.209Z,28.13
2022-12-11T16:44:25.860Z,25.83
2022-12-11T16:46:52.796Z,25.33
2022-12-11T16:49:20.564Z,27.55
2022-12-11T16:51:47.215Z,22.30
2022-12-11T16:54:13.797Z,24.23
2022-12-11T16:56:40.426Z,25.50
2022-12-11T16:59:07.484Z,25.77
2022-12-11T17:01:34.808Z,36.47
2022-12-11T17:04:01.519Z,23.20
2022-12-11T17:06:29.815Z,25.98
2022-12-11T17:08:57.041Z,25.10
2022-12-11T17:11:27.157Z,27.88
2022-12-11T17:13:55.684Z,25.52
2022-12-11T17:16:24.947Z,25.17
2022-12-11T17:18:52.564Z,29.98
2022-12-11T17:21:21.223Z,29.70
2022-12-11T17:23:49.358Z,25.88
2022-12-11T17:26:17.131Z,28.83
2022-12-11T17:28:44.060Z,28.55
2022-12-11T17:31:14.410Z,32.55
2022-12-11T17:33:41.239Z,31.05
2022-12-11T17:36:08.739Z,33.83
2022-12-11T17:38:35.860Z,33.70
2022-12-11T17:41:09.466Z,37.80
2022-12-11T17:43:36.181Z,29.55
2022-12-11T17:46:03.808Z,30.08
2022-12-11T17:48:30.732Z,32.70
2022-12-11T17:50:57.403Z,36.75
2022-12-11T17:53:24.593Z,29.35
2022-12-11T17:55:52.188Z,30.52
2022-12-11T17:58:23.292Z,30.67
2022-12-11T18:00:53.284Z,29.13
2022-12-11T18:03:20.970Z,36.90
2022-12-11T18:05:53.028Z,30.75
2022-12-11T18:08:22.381Z,32.88
2022-12-11T18:10:49.245Z,32.83
2022-12-11T18:13:15.945Z,42.50
2022-12-11T18:15:42.590Z,36.30
2022-12-11T18:18:09.963Z,36.58
2022-12-11T18:20:37.677Z,36.30
2022-12-11T18:23:05.260Z,36.22
2022-12-11T18:25:31.889Z,35.88
2022-12-11T18:27:59.701Z,32.22
2022-12-11T18:30:26.966Z,35.45
2022-12-11T18:32:53.645Z,35.65
2022-12-11T18:35:20.398Z,37.90
2022-12-11T18:37:46.969Z,33.92
2022-12-11T18:40:13.530Z,39.10
2022-12-11T18:42:40.142Z,31.70
2022-12-11T18:45:07.517Z,33.92
2022-12-11T18:47:34.107Z,32.92
2022-12-11T18:50:05.779Z,36.80
2022-12-11T18:52:34.409Z,35.42
2022-12-11T18:55:01.133Z,40.65
2022-12-11T18:57:27.676Z,34.17
2022-12-11T18:59:54.386Z,39.28
2022-12-11T19:02:21.831Z,33.65
2022-12-11T19:04:48.909Z,38.30
2022-12-11T19:07:15.479Z,36.92
2022-12-11T19:09:47.605Z,36.22
2022-12-11T19:12:14.836Z,34.08
2022-12-11T19:14:41.568Z,32.58
2022-12-11T19:17:08.162Z,33.78
2022-12-11T19:19:35.866Z,34.42
2022-12-11T19:22:02.500Z,34.42
2022-12-11T19:24:29.087Z,38.45
2022-12-11T19:26:55.644Z,34.22
2022-12-11T19:29:28.285Z,31.33
2022-12-11T19:31:55.849Z,33.45
2022-12-11T19:34:23.097Z,34.15
2022-12-11T19:36:49.938Z,28.80
2022-12-11T19:39:16.915Z,32.60
2022-12-11T19:41:43.824Z,32.95
2022-12-11T19:44:10.693Z,30.13
2022-12-11T19:46:37.957Z,30.38
2022-12-11T19:49:04.917Z,30.08
2022-12-11T19:51:34.174Z,36.88
2022-12-11T19:54:02.943Z,27.52
2022-12-11T19:56:30.053Z,28.73
2022-12-11T19:58:57.101Z,28.35
2022-12-11T20:01:31.138Z,30.08
2022-12-11T20:04:00.686Z,29.10
2022-12-11T20:06:32.527Z,28.88
2022-12-11T20:11:26.419Z,28.15
2022-12-11T20:13:55.606Z,31.23
2022-12-11T20:16:39.554Z,32.10
2022-12-11T20:19:09.768Z,33.22
2022-12-11T20:21:36.364Z,33.63
2022-12-11T20:24:03.082Z,32.80
2022-12-11T20:26:31.899Z,35.10
2022-12-11T20:28:58.606Z,36.78
2022-12-11T20:31:26.273Z,33.45
2022-12-11T20:33:55.749Z,34.92
2022-12-11T20:36:23.418Z,31.30
2022-12-11T20:38:50.692Z,31.08
2022-12-11T20:41:21.023Z,28.73
2022-12-11T20:43:53.267Z,30.30
2022-12-11T20:46:21.746Z,30.95
2022-12-11T20:48:48.981Z,32.25
2022-12-11T20:51:22.391Z,30.30
2022-12-11T20:53:57.613Z,31.63
2022-12-11T20:56:26.346Z,33.92
2022-12-11T20:58:53.097Z,35.95
2022-12-11T21:01:22.815Z,33.40
2022-12-11T21:03:50.127Z,35.10
2022-12-11T21:06:26.796Z,32.15
2022-12-11T21:08:54.101Z,33.40
2022-12-11T21:11:21.510Z,33.72
2022-12-11T21:13:48.071Z,34.92
2022-12-11T21:16:14.809Z,35.03
2022-12-11T21:18:43.477Z,34.60
2022-12-11T21:21:10.627Z,43.70
2022-12-11T21:23:37.293Z,33.28
2022-12-11T21:26:04.271Z,32.95
2022-12-11T21:28:35.406Z,33.75
2022-12-11T21:31:04.265Z,34.05
2022-12-11T21:33:30.893Z,32.30
2022-12-11T21:35:59.517Z,28.75
2022-12-11T21:38:27.220Z,32.28
2022-12-11T21:40:55.453Z,32.42
2022-12-11T21:43:23.459Z,26.67
2022-12-11T21:46:05.713Z,30.48
2022-12-11T21:48:32.933Z,34.90
2022-12-11T21:51:17.790Z,28.42
2022-12-11T21:53:45.230Z,30.40
2022-12-11T21:56:14.329Z,31.70
2022-12-11T21:58:42.346Z,29.85
2022-12-11T22:01:24.395Z,31.95
2022-12-11T22:03:52.388Z,29.58
2022-12-11T22:06:19.200Z,31.52
2022-12-11T22:08:46.718Z,30.58
2022-12-11T22:11:13.966Z,28.23
2022-12-11T22:13:40.535Z,32.25
2022-12-11T22:16:07.203Z,34.42
2022-12-11T22:18:33.841Z,29.38
2022-12-11T22:21:00.814Z,30.83
2022-12-11T22:23:27.491Z,33.63
2022-12-11T22:25:54.521Z,32.95
2022-12-11T22:28:21.086Z,33.78
2022-12-11T22:30:47.731Z,36.33
2022-12-11T22:33:14.725Z,34.25
2022-12-11T22:35:41.452Z,40.10
2022-12-11T22:38:08.044Z,36.88
2022-12-11T22:40:34.710Z,32.85
2022-12-11T22:43:01.274Z,34.45
2022-12-11T22:45:27.789Z,33.42
2022-12-11T22:47:54.391Z,38.22
2022-12-11T22:50:21.032Z,45.17
2022-12-11T22:52:47.605Z,33.13
2022-12-11T22:55:14.791Z,38.90
2022-12-11T22:57:41.415Z,38.28
2022-12-11T23:00:10.895Z,33.97
2022-12-11T23:02:38.385Z,34.58
2022-12-11T23:05:06.337Z,37.30
2022-12-11T23:07:33.311Z,38.35
2022-12-11T23:10:00.026Z,32.65
2022-12-11T23:12:26.615Z,39.03
2022-12-11T23:14:53.200Z,33.33
2022-12-11T23:17:19.768Z,36.92
2022-12-11T23:19:46.767Z,33.85
2022-12-11T23:22:13.943Z,35.33
2022-12-11T23:24:41.316Z,37.80
2022-12-11T23:27:07.926Z,31.90
2022-12-11T23:29:34.494Z,36.45
2022-12-11T23:32:01.181Z,30.77
2022-12-11T23:34:28.156Z,37.13
2022-12-11T23:36:54.719Z,32.33
2022-12-11T23:39:21.302Z,31.90
2022-12-11T23:41:47.845Z,33.78
2022-12-11T23:44:14.497Z,34.30
2022-12-11T23:46:42.668Z,31.48
2022-12-11T23:49:09.255Z,33.72
2022-12-11T23:51:35.850Z,33.80
2022-12-11T23:54:02.475Z,35.50
2022-12-11T23:56:29.652Z,34.22
2022-12-11T23:58:56.769Z,36.45
